East Olympia, Washington
Current Conditions -  °F | °C
As of 3:09 AM on Saturday 25 Oct 2014 (Local Time) from KOLM Reporting Station
Broken Clouds Broken Clouds  
Wind Chill: 49°   Ceiling: 9000
Heat Index: 49°   Visibility: 10mi
Dew Point: 47°   Wind: 0mph
Humidity: 93%   Direction: NA
Pressure: 29.61"   Gusts: NA
Location:  46.97°N, 122.84°W
Report Text: KOLM 251009Z 00000KT 10SM SCT006 BKN090 09/08 A2961 RMK AO2 T00940083
Loading
Personal Weather Stations






























Interactive Weather Map
Tropical Storm Tracking
New forecast layout! Learn more

10-Day Weather Forecast

Advertisements
Track Severe Weather on mobile